14:48
Airports
History
Links
Donate
Help keep this website running!
PayPal
Bitcoin
This page is community maintained. The information is intended for PC simulator navigation or reference.
Always use approved charts for navigation.
RJTL
SHIMOFUSA
SHIMOFUSA (RJTL)
Kamagaya-shi, Chiba Prefecture, Japan (273)
(C)
Lat/Lng:35° 47' 56.2" N / 140° 0' 43.95" E
35.798945 / 140.012209
Elevation:98'ft / 30mMSL
ID / ICAO:RJTL
Runways:1
Longest:(01-19) 2,253.1m / 7,392ft Concrete
Controlled:Yes
Distance To
Airport ID:
Airport Radio Frequencies
Ground: 138.3
Tower: 126.2, 138.3
Approach: 122, 126
Departure: 120.8, 126, 127.6
Nearby VORs <50NM
Nearby NDBs
METARUpdated 08-19-17 12:38 GMT
Altimeter: 29.88
Visibility: 3.0 statute miles
Wind: 5 knots (010°)
Temp: 23°c 73°f
Humidity: 94.1%

METAR: RJTL 191238Z 01005KT 330V040 4900 SHRA BR BKN008 BKN025 23/22 Q1012 RMK 5ST008 7CU025 A2990

(Powered by phpweather)
Runway 01 / 19
Dimensions:2253.1 x 45.7m 7392' x 150'ft
Surface:Concrete
Edge Lights:High intensity
Runway 01 [A]Runway 19 [B]
Heading:359°TH 179°TH
Lat:
Lng:
35° 47' 19.7"N
140° 0' 44.7"E
35° 48' 32.7"N
140° 0' 43.2"E
ALS:ALSF-I
User Notes and Comments
Google Map
Nearby Airports
(C) Ohotone 13.6 NM
RJA2 ENE 73°
(C) Ryugasaki 14.9 NM
RJA3 ENE 61°
(C) Kasumigaura AB 19.1 NM
RJAK (WX) NNE 32°
(C) NARITA INTL 20.7 NM
RJAA (WX) E 94°
(C) Ami 21.0 NM
RJA1 NE 43°
(C) Tokyo Haneda Intl 21.4 NM
RJTT (WX) SW 215°
(C) KISARAZU 28.3 NM
RJTK (WX) S 191°
VFR Chart
Flight Planning at SkyVector.com